createdAt,value
2023-06-04T00:00:52.016Z,0.00
2023-06-04T00:01:51.997Z,0.00
2023-06-04T00:02:52.031Z,0.00
2023-06-04T00:03:52.063Z,0.00
2023-06-04T00:04:51.992Z,0.00
2023-06-04T00:05:51.969Z,0.00
2023-06-04T00:06:51.938Z,0.00
2023-06-04T00:07:51.918Z,0.00
2023-06-04T00:08:51.929Z,0.00
2023-06-04T00:09:51.920Z,0.00
2023-06-04T00:10:51.908Z,0.00
2023-06-04T00:11:51.977Z,0.00
2023-06-04T00:12:51.867Z,0.00
2023-06-04T00:13:51.873Z,0.00
2023-06-04T00:14:51.844Z,0.00
2023-06-04T00:15:51.869Z,0.00
2023-06-04T00:16:51.929Z,0.00
2023-06-04T00:17:51.860Z,0.00
2023-06-04T00:18:51.793Z,0.00
2023-06-04T00:19:51.785Z,0.00
2023-06-04T00:20:51.764Z,0.00
2023-06-04T00:21:51.755Z,0.00
2023-06-04T00:22:51.762Z,0.00
2023-06-04T00:23:51.771Z,0.00
2023-06-04T00:24:51.720Z,0.00
2023-06-04T00:25:51.706Z,0.00
2023-06-04T00:26:51.707Z,0.00
2023-06-04T00:27:51.688Z,0.00
2023-06-04T00:28:51.680Z,0.00
2023-06-04T00:29:51.718Z,0.00
2023-06-04T00:30:51.672Z,0.00
2023-06-04T00:31:51.668Z,0.00
2023-06-04T00:32:51.725Z,0.00
2023-06-04T00:33:51.647Z,0.00
2023-06-04T00:34:51.612Z,0.00
2023-06-04T00:35:51.623Z,0.00
2023-06-04T00:36:51.622Z,0.00
2023-06-04T00:37:51.562Z,0.00
2023-06-04T00:38:51.563Z,0.00
2023-06-04T00:39:51.578Z,0.00
2023-06-04T00:40:51.574Z,0.00
2023-06-04T00:41:51.526Z,0.00
2023-06-04T00:42:51.517Z,0.00
2023-06-04T00:43:51.541Z,0.00
2023-06-04T00:44:51.500Z,0.00
2023-06-04T00:45:51.528Z,0.00
2023-06-04T00:46:51.524Z,0.00
2023-06-04T00:47:51.513Z,0.00
2023-06-04T00:48:51.453Z,0.00
2023-06-04T00:49:51.481Z,0.00
2023-06-04T00:50:51.447Z,0.00
2023-06-04T00:51:51.560Z,0.00
2023-06-04T00:52:51.425Z,0.00
2023-06-04T00:53:51.463Z,0.00
2023-06-04T00:54:51.392Z,0.00
2023-06-04T00:55:51.382Z,0.00
2023-06-04T00:56:51.400Z,0.00
2023-06-04T00:57:51.356Z,0.00
2023-06-04T00:58:51.353Z,0.00
2023-06-04T00:59:51.345Z,0.00
2023-06-04T01:00:51.339Z,0.00
2023-06-04T01:01:51.310Z,0.00
2023-06-04T01:02:51.335Z,0.00
2023-06-04T01:03:51.339Z,0.00
2023-06-04T01:04:51.268Z,0.00
2023-06-04T01:05:51.251Z,0.00
2023-06-04T01:06:51.254Z,0.00
2023-06-04T01:07:51.244Z,0.00
2023-06-04T01:08:51.243Z,0.00
2023-06-04T01:09:51.237Z,0.00
2023-06-04T01:10:51.200Z,0.00
2023-06-04T01:11:51.206Z,0.00
2023-06-04T01:12:51.188Z,0.00
2023-06-04T01:13:51.196Z,0.00
2023-06-04T01:14:51.197Z,0.00
2023-06-04T01:15:51.171Z,0.00
2023-06-04T01:16:51.210Z,0.00
2023-06-04T01:17:51.153Z,0.00
2023-06-04T01:18:51.134Z,0.00
2023-06-04T01:19:51.129Z,0.00
2023-06-04T01:20:51.086Z,0.00
2023-06-04T01:21:51.094Z,0.00
2023-06-04T01:22:51.080Z,0.00
2023-06-04T01:23:51.103Z,0.00
2023-06-04T01:24:51.059Z,0.00
2023-06-04T01:25:51.088Z,0.00
2023-06-04T01:26:51.097Z,0.00
2023-06-04T01:27:51.050Z,0.00
2023-06-04T01:28:51.012Z,0.00
2023-06-04T01:29:50.999Z,0.00
2023-06-04T01:30:51.015Z,0.00
2023-06-04T01:31:51.106Z,0.00
2023-06-04T01:32:50.995Z,0.00
2023-06-04T01:33:50.956Z,0.00
2023-06-04T01:34:50.951Z,0.00
2023-06-04T01:35:50.950Z,0.00
2023-06-04T01:36:50.924Z,0.00
2023-06-04T01:37:50.908Z,0.00
2023-06-04T01:38:50.910Z,0.00
2023-06-04T01:39:50.893Z,0.00
2023-06-04T01:40:50.877Z,0.00
2023-06-04T01:41:50.857Z,0.00
2023-06-04T01:42:50.845Z,0.00
2023-06-04T01:43:50.851Z,0.00
2023-06-04T01:44:50.843Z,0.00
2023-06-04T01:45:50.812Z,0.00
2023-06-04T01:46:50.874Z,0.00
2023-06-04T01:48:50.871Z,0.00
2023-06-04T01:49:50.809Z,0.00
2023-06-04T01:50:50.777Z,0.00
2023-06-04T01:51:50.751Z,0.00
2023-06-04T01:52:50.766Z,0.00
2023-06-04T01:53:50.733Z,0.00
2023-06-04T01:54:50.727Z,0.00
2023-06-04T01:55:50.728Z,0.00
2023-06-04T01:56:50.721Z,0.00
2023-06-04T01:57:50.720Z,0.00
2023-06-04T01:58:50.695Z,0.00
2023-06-04T01:59:50.677Z,0.00
2023-06-04T02:00:50.680Z,0.00
2023-06-04T02:01:50.695Z,0.00
2023-06-04T02:02:50.744Z,0.00
2023-06-04T02:03:50.671Z,0.00
2023-06-04T02:04:50.617Z,0.00
2023-06-04T02:05:50.606Z,0.00
2023-06-04T02:06:50.615Z,0.00
2023-06-04T02:07:50.569Z,0.00
2023-06-04T02:08:50.582Z,0.00
2023-06-04T02:09:50.553Z,0.00
2023-06-04T02:10:50.561Z,0.00
2023-06-04T02:11:50.520Z,0.00
2023-06-04T02:12:50.528Z,0.00
2023-06-04T02:13:50.533Z,0.00
2023-06-04T02:14:50.503Z,0.00
2023-06-04T02:15:50.506Z,0.00
2023-06-04T02:16:50.560Z,0.00
2023-06-04T02:17:50.503Z,0.00
2023-06-04T02:18:50.491Z,0.00
2023-06-04T02:19:50.449Z,0.00
2023-06-04T02:20:50.443Z,0.00
2023-06-04T02:21:50.417Z,0.00
2023-06-04T02:22:50.423Z,0.00
2023-06-04T02:23:50.428Z,0.00
2023-06-04T02:24:50.400Z,0.00
2023-06-04T02:25:50.409Z,0.00
2023-06-04T02:26:50.401Z,0.00
2023-06-04T02:27:50.359Z,0.00
2023-06-04T02:28:50.360Z,0.00
2023-06-04T02:29:50.343Z,0.00
2023-06-04T02:30:50.337Z,0.00
2023-06-04T02:31:50.331Z,0.00
2023-06-04T02:32:52.691Z,0.00
2023-06-04T02:33:50.282Z,0.00
2023-06-04T02:34:50.291Z,0.00
2023-06-04T02:35:50.278Z,0.00
2023-06-04T02:36:50.289Z,0.00
2023-06-04T02:37:50.260Z,0.00
2023-06-04T02:38:50.241Z,0.00
2023-06-04T02:39:50.241Z,0.00
2023-06-04T02:40:50.246Z,0.00
2023-06-04T02:41:50.213Z,0.00
2023-06-04T02:42:50.198Z,0.00
2023-06-04T02:43:50.228Z,0.00
2023-06-04T02:44:50.168Z,0.00
2023-06-04T02:45:50.177Z,0.00
2023-06-04T02:46:50.156Z,0.00
2023-06-04T02:47:50.212Z,0.00
2023-06-04T02:48:50.137Z,0.00
2023-06-04T02:49:50.128Z,0.00
2023-06-04T02:50:50.093Z,0.00
2023-06-04T02:51:50.093Z,0.00
2023-06-04T02:52:50.105Z,0.00
2023-06-04T02:53:50.094Z,0.00
2023-06-04T02:54:50.063Z,0.00
2023-06-04T02:55:50.057Z,4.00
2023-06-04T02:56:50.060Z,4.00
2023-06-04T02:57:50.050Z,0.00
2023-06-04T02:58:50.032Z,4.00
2023-06-04T02:59:49.991Z,4.00
2023-06-04T03:00:50.029Z,4.00
2023-06-04T03:01:50.042Z,4.00
2023-06-04T03:02:50.147Z,4.00
2023-06-04T03:03:49.980Z,8.00
2023-06-04T03:04:49.951Z,8.00
2023-06-04T03:05:49.929Z,12.00
2023-06-04T03:06:49.910Z,12.00
2023-06-04T03:07:49.922Z,12.00
2023-06-04T03:08:49.931Z,12.00
2023-06-04T03:09:49.899Z,16.00
2023-06-04T03:10:49.906Z,16.00
2023-06-04T03:11:49.876Z,16.00
2023-06-04T03:12:49.860Z,24.00
2023-06-04T03:13:49.870Z,24.00
2023-06-04T03:14:49.861Z,28.00
2023-06-04T03:15:49.922Z,32.00
2023-06-04T03:16:49.814Z,36.00
2023-06-04T03:17:49.834Z,40.00
2023-06-04T03:18:49.798Z,48.00
2023-06-04T03:19:49.790Z,52.00
2023-06-04T03:20:49.770Z,56.00
2023-06-04T03:21:49.752Z,64.00
2023-06-04T03:22:49.758Z,68.00
2023-06-04T03:23:49.822Z,76.00
2023-06-04T03:24:49.750Z,84.00
2023-06-04T03:25:49.725Z,92.00
2023-06-04T03:26:49.734Z,104.00
2023-06-04T03:27:49.717Z,112.00
2023-06-04T03:28:49.689Z,124.00
2023-06-04T03:29:49.675Z,136.00
2023-06-04T03:30:49.744Z,148.00
2023-06-04T03:31:49.674Z,164.00
2023-06-04T03:32:49.715Z,180.00
2023-06-04T03:33:49.637Z,192.00
2023-06-04T03:34:49.652Z,208.00
2023-06-04T03:35:49.603Z,224.00
2023-06-04T03:36:49.610Z,240.00
2023-06-04T03:37:49.598Z,256.00
2023-06-04T03:38:49.568Z,272.00
2023-06-04T03:39:49.562Z,292.00
2023-06-04T03:40:49.564Z,308.00
2023-06-04T03:41:49.539Z,328.00
2023-06-04T03:42:49.533Z,348.00
2023-06-04T03:43:49.525Z,372.00
2023-06-04T03:44:49.516Z,392.00
2023-06-04T03:45:49.524Z,416.00
2023-06-04T03:46:49.533Z,440.00
2023-06-04T03:47:49.511Z,464.00
2023-06-04T03:48:49.472Z,484.00
2023-06-04T03:49:49.455Z,500.00
2023-06-04T03:50:49.460Z,520.00
2023-06-04T03:51:49.427Z,540.00
2023-06-04T03:52:49.450Z,564.00
2023-06-04T03:53:49.394Z,584.00
2023-06-04T03:54:49.393Z,612.00
2023-06-04T03:55:49.413Z,640.00
2023-06-04T03:56:49.380Z,668.00
2023-06-04T03:57:49.348Z,700.00
2023-06-04T03:58:49.347Z,732.00
2023-06-04T03:59:49.326Z,772.00
2023-06-04T04:00:49.328Z,812.00
2023-06-04T04:01:49.407Z,848.00
2023-06-04T04:02:49.377Z,884.00
2023-06-04T04:03:49.457Z,920.00
2023-06-04T04:04:49.278Z,968.00
2023-06-04T04:05:49.271Z,1000.00
2023-06-04T04:06:49.262Z,1028.00
2023-06-04T04:07:49.238Z,1048.00
2023-06-04T04:08:49.230Z,1084.00
2023-06-04T04:09:49.235Z,1108.00
2023-06-04T04:10:49.252Z,1112.00
2023-06-04T04:11:49.211Z,1120.00
2023-06-04T04:12:49.331Z,1116.00
2023-06-04T04:13:49.205Z,1120.00
2023-06-04T04:14:49.211Z,1140.00
2023-06-04T04:15:49.191Z,1172.00
2023-06-04T04:16:49.254Z,1204.00
2023-06-04T04:17:49.206Z,1228.00
2023-06-04T04:18:49.132Z,1248.00
2023-06-04T04:19:49.122Z,1212.00
2023-06-04T04:20:49.108Z,1212.00
2023-06-04T04:21:49.098Z,1216.00
2023-06-04T04:22:51.372Z,1220.00
2023-06-04T04:23:49.122Z,1236.00
2023-06-04T04:24:49.064Z,1252.00
2023-06-04T04:25:49.045Z,1264.00
2023-06-04T04:26:49.051Z,1284.00
2023-06-04T04:27:49.027Z,1300.00
2023-06-04T04:28:49.046Z,1312.00
2023-06-04T04:29:49.010Z,1328.00
2023-06-04T04:30:49.038Z,1344.00
2023-06-04T04:31:48.986Z,1364.00
2023-06-04T04:32:49.002Z,1388.00
2023-06-04T04:33:48.957Z,1412.00
2023-06-04T04:34:48.964Z,1432.00
2023-06-04T04:35:48.955Z,1444.00
2023-06-04T04:36:48.925Z,1460.00
2023-06-04T04:37:48.942Z,1468.00
2023-06-04T04:38:48.893Z,1476.00
2023-06-04T04:39:48.911Z,1492.00
2023-06-04T04:40:48.882Z,1504.00
2023-06-04T04:41:48.856Z,1524.00
2023-06-04T04:42:48.863Z,1552.00
2023-06-04T04:43:48.858Z,1576.00
2023-06-04T04:44:48.855Z,1604.00
2023-06-04T04:45:48.836Z,1640.00
2023-06-04T04:46:48.964Z,1680.00
2023-06-04T04:47:48.847Z,1708.00
2023-06-04T04:48:48.821Z,1748.00
2023-06-04T04:49:50.406Z,1796.00
2023-06-04T04:50:48.785Z,1828.00
2023-06-04T04:51:48.828Z,1864.00
2023-06-04T04:52:48.753Z,1916.00
2023-06-04T04:53:48.778Z,1952.00
2023-06-04T04:54:48.783Z,1920.00
2023-06-04T04:55:48.741Z,1836.00
2023-06-04T04:56:50.134Z,1756.00
2023-06-04T04:57:48.679Z,1708.00
2023-06-04T04:58:48.697Z,1664.00
2023-06-04T04:59:48.674Z,1672.00
2023-06-04T05:00:48.679Z,1700.00
2023-06-04T05:01:48.731Z,1728.00
2023-06-04T05:02:48.651Z,1768.00
2023-06-04T05:03:48.640Z,1804.00
2023-06-04T05:04:48.614Z,1832.00
2023-06-04T05:05:48.611Z,1864.00
2023-06-04T05:06:48.602Z,1904.00
2023-06-04T05:07:48.600Z,1936.00
2023-06-04T05:08:48.576Z,1956.00
2023-06-04T05:09:48.582Z,1968.00
2023-06-04T05:10:48.557Z,1996.00
2023-06-04T05:11:48.549Z,2028.00
2023-06-04T05:12:48.529Z,2044.00
2023-06-04T05:13:48.517Z,2064.00
2023-06-04T05:14:48.503Z,2096.00
2023-06-04T05:15:48.509Z,2116.00
2023-06-04T05:16:48.545Z,2128.00
2023-06-04T05:17:48.529Z,2140.00
2023-06-04T05:18:48.453Z,2156.00
2023-06-04T05:19:48.500Z,2164.00
2023-06-04T05:20:48.442Z,2176.00
2023-06-04T05:21:48.419Z,2196.00
2023-06-04T05:22:48.407Z,2208.00
2023-06-04T05:23:48.455Z,2232.00
2023-06-04T05:24:48.410Z,2256.00
2023-06-04T05:25:48.396Z,2280.00
2023-06-04T05:26:48.368Z,2296.00
2023-06-04T05:27:48.398Z,2312.00
2023-06-04T05:28:48.365Z,2316.00
2023-06-04T05:29:48.348Z,2320.00
2023-06-04T05:30:48.323Z,2332.00
2023-06-04T05:31:48.365Z,2348.00
2023-06-04T05:32:48.327Z,2360.00
2023-06-04T05:33:48.300Z,2372.00
2023-06-04T05:34:48.293Z,2376.00
2023-06-04T05:35:48.279Z,2380.00
2023-06-04T05:36:48.269Z,2392.00
2023-06-04T05:37:48.280Z,2408.00
2023-06-04T05:38:48.272Z,2420.00
2023-06-04T05:39:48.245Z,2424.00
2023-06-04T05:40:48.224Z,2432.00
2023-06-04T05:41:48.204Z,2436.00
2023-06-04T05:42:48.204Z,2448.00
2023-06-04T05:43:48.180Z,2452.00
2023-06-04T05:44:48.170Z,2460.00
2023-06-04T05:45:48.199Z,2464.00
2023-06-04T05:46:48.141Z,2468.00
2023-06-04T05:47:48.186Z,2480.00
2023-06-04T05:48:48.135Z,2484.00
2023-06-04T05:49:48.144Z,2492.00
2023-06-04T05:50:48.107Z,2500.00
2023-06-04T05:51:48.113Z,2504.00
2023-06-04T05:52:48.103Z,2512.00
2023-06-04T05:53:48.088Z,2516.00
2023-06-04T05:54:48.066Z,2524.00
2023-06-04T05:55:48.048Z,2528.00
2023-06-04T05:56:48.055Z,2532.00
2023-06-04T05:57:48.047Z,2532.00
2023-06-04T05:58:48.030Z,2540.00
2023-06-04T05:59:48.009Z,2548.00
2023-06-04T06:00:47.994Z,2556.00
2023-06-04T06:01:47.999Z,2560.00
2023-06-04T06:02:48.019Z,2568.00
2023-06-04T06:03:48.023Z,2572.00
2023-06-04T06:04:47.966Z,2576.00
2023-06-04T06:05:47.954Z,2584.00
2023-06-04T06:06:47.920Z,2592.00
2023-06-04T06:07:48.032Z,2600.00
2023-06-04T06:08:47.894Z,2608.00
2023-06-04T06:09:47.895Z,2620.00
2023-06-04T06:10:47.914Z,2632.00
2023-06-04T06:11:47.884Z,2644.00
2023-06-04T06:12:48.004Z,2664.00
2023-06-04T06:13:47.848Z,2684.00
2023-06-04T06:14:47.840Z,2700.00
2023-06-04T06:15:47.900Z,2712.00
2023-06-04T06:16:47.817Z,2724.00
2023-06-04T06:17:47.824Z,2732.00
2023-06-04T06:18:47.814Z,2744.00
2023-06-04T06:19:47.798Z,2764.00
2023-06-04T06:20:47.768Z,2780.00
2023-06-04T06:21:47.760Z,2784.00
2023-06-04T06:22:47.758Z,2792.00
2023-06-04T06:23:47.785Z,2800.00
2023-06-04T06:24:47.716Z,2800.00
2023-06-04T06:25:47.720Z,2804.00
2023-06-04T06:26:47.707Z,2808.00
2023-06-04T06:27:47.697Z,2820.00
2023-06-04T06:28:47.666Z,2832.00
2023-06-04T06:29:47.690Z,2840.00
2023-06-04T06:30:47.682Z,2864.00
2023-06-04T06:31:47.710Z,2896.00
2023-06-04T06:32:47.752Z,2940.00
2023-06-04T06:33:47.632Z,3004.00
2023-06-04T06:34:47.622Z,3076.00
2023-06-04T06:35:47.776Z,3144.00
2023-06-04T06:36:47.599Z,3200.00
2023-06-04T06:37:47.584Z,3224.00
2023-06-04T06:38:47.580Z,3244.00
2023-06-04T06:39:47.576Z,3268.00
2023-06-04T06:40:47.553Z,3308.00
2023-06-04T06:41:47.556Z,3364.00
2023-06-04T06:42:47.568Z,3424.00
2023-06-04T06:43:47.540Z,3480.00
2023-06-04T06:44:47.516Z,3540.00
2023-06-04T06:45:47.513Z,3580.00
2023-06-04T06:46:47.548Z,3600.00
2023-06-04T06:47:47.559Z,3664.00
2023-06-04T06:48:47.452Z,3852.00
2023-06-04T06:49:47.447Z,4120.00
2023-06-04T06:50:47.446Z,4500.00
2023-06-04T06:51:47.442Z,5088.00
2023-06-04T06:52:47.441Z,5748.00
2023-06-04T06:53:47.398Z,6192.00
2023-06-04T06:54:47.392Z,6488.00
2023-06-04T06:55:47.425Z,6672.00
2023-06-04T06:56:47.361Z,6936.00
2023-06-04T06:57:47.374Z,7244.00
2023-06-04T06:58:47.347Z,7496.00
2023-06-04T06:59:47.355Z,7676.00
2023-06-04T07:00:47.484Z,7724.00
2023-06-04T07:01:47.432Z,7716.00
2023-06-04T07:02:47.365Z,7724.00
2023-06-04T07:03:47.306Z,7616.00
2023-06-04T07:04:47.276Z,7600.00
2023-06-04T07:05:47.270Z,7624.00
2023-06-04T07:06:47.287Z,7612.00
2023-06-04T07:07:47.261Z,7520.00
2023-06-04T07:08:47.254Z,7508.00
2023-06-04T07:09:47.227Z,7376.00
2023-06-04T07:10:47.246Z,7176.00
2023-06-04T07:11:47.229Z,7004.00
2023-06-04T07:12:47.203Z,6756.00
2023-06-04T07:13:47.210Z,6764.00
2023-06-04T07:14:47.177Z,6760.00
2023-06-04T07:15:47.193Z,6700.00
2023-06-04T07:16:47.166Z,6584.00
2023-06-04T07:17:47.218Z,6460.00
2023-06-04T07:18:47.122Z,6528.00
2023-06-04T07:19:47.131Z,6604.00
2023-06-04T07:20:47.121Z,6836.00
2023-06-04T07:21:47.098Z,7016.00
2023-06-04T07:22:47.090Z,7052.00
2023-06-04T07:23:47.145Z,6964.00
2023-06-04T07:24:47.061Z,6744.00
2023-06-04T07:25:47.052Z,6372.00
2023-06-04T07:26:47.054Z,5912.00
2023-06-04T07:27:47.062Z,5456.00
2023-06-04T07:28:47.027Z,5036.00
2023-06-04T07:29:47.038Z,4676.00
2023-06-04T07:30:47.076Z,4356.00
2023-06-04T07:31:47.091Z,4060.00
2023-06-04T07:32:47.020Z,3844.00
2023-06-04T07:33:47.013Z,3700.00
2023-06-04T07:34:46.962Z,3640.00
2023-06-04T07:35:46.956Z,3592.00
2023-06-04T07:36:46.946Z,3556.00
2023-06-04T07:37:46.962Z,3516.00
2023-06-04T07:38:46.924Z,3488.00
2023-06-04T07:39:46.919Z,3468.00
2023-06-04T07:40:46.925Z,3432.00
2023-06-04T07:41:46.904Z,3412.00
2023-06-04T07:42:46.888Z,3412.00
2023-06-04T07:43:46.880Z,3392.00
2023-06-04T07:44:46.882Z,3388.00
2023-06-04T07:45:46.903Z,3384.00
2023-06-04T07:46:46.856Z,3372.00
2023-06-04T07:47:46.865Z,3360.00
2023-06-04T07:48:46.829Z,3352.00
2023-06-04T07:49:58.397Z,3352.00
2023-06-04T07:50:46.828Z,3356.00
2023-06-04T07:51:46.799Z,3372.00
2023-06-04T07:52:46.801Z,3388.00
2023-06-04T07:53:46.794Z,3404.00
2023-06-04T07:54:46.773Z,3440.00
2023-06-04T07:55:46.771Z,3488.00
2023-06-04T07:56:46.745Z,3548.00
2023-06-04T07:57:46.747Z,3620.00
2023-06-04T07:58:46.732Z,3796.00
2023-06-04T07:59:46.713Z,4000.00
2023-06-04T08:00:46.709Z,4200.00
2023-06-04T08:01:46.700Z,4432.00
2023-06-04T08:02:46.831Z,4700.00
2023-06-04T08:03:46.782Z,5072.00
2023-06-04T08:04:46.743Z,5584.00
2023-06-04T08:05:46.667Z,6328.00
2023-06-04T08:06:46.646Z,7352.00
2023-06-04T08:07:46.641Z,8496.00
2023-06-04T08:08:46.994Z,9440.00
2023-06-04T08:09:46.733Z,10124.00
2023-06-04T08:10:46.616Z,10632.00
2023-06-04T08:11:46.669Z,10828.00
2023-06-04T08:12:46.600Z,10836.00
2023-06-04T08:13:46.583Z,10616.00
2023-06-04T08:14:46.588Z,10204.00
2023-06-04T08:15:46.563Z,9688.00
2023-06-04T08:16:46.684Z,9096.00
2023-06-04T08:17:46.578Z,8440.00
2023-06-04T08:18:46.536Z,7484.00
2023-06-04T08:19:46.523Z,6756.00
2023-06-04T08:20:46.508Z,6172.00
2023-06-04T08:21:46.501Z,5800.00
2023-06-04T08:22:46.532Z,5648.00
2023-06-04T08:23:46.523Z,5624.00
2023-06-04T08:24:46.466Z,5768.00
2023-06-04T08:25:46.470Z,6032.00
2023-06-04T08:26:46.446Z,6536.00
2023-06-04T08:27:46.440Z,7076.00
2023-06-04T08:28:46.415Z,7644.00
2023-06-04T08:29:46.456Z,8224.00
2023-06-04T08:30:46.433Z,8924.00
2023-06-04T08:31:46.398Z,9780.00
2023-06-04T08:32:46.466Z,10660.00
2023-06-04T08:33:46.384Z,11248.00
2023-06-04T08:34:46.368Z,11456.00
2023-06-04T08:35:46.377Z,11464.00
2023-06-04T08:36:46.339Z,11476.00
2023-06-04T08:37:46.320Z,11612.00
2023-06-04T08:38:50.926Z,11792.00
2023-06-04T08:39:46.302Z,12040.00
2023-06-04T08:40:46.320Z,12232.00
2023-06-04T08:41:46.279Z,12252.00
2023-06-04T08:42:46.276Z,12076.00
2023-06-04T08:43:46.260Z,11664.00
2023-06-04T08:44:46.270Z,10956.00
2023-06-04T08:45:46.296Z,10376.00
2023-06-04T08:46:46.223Z,9888.00
2023-06-04T08:47:46.247Z,9300.00
2023-06-04T08:48:46.210Z,8660.00
2023-06-04T08:49:46.204Z,7920.00
2023-06-04T08:50:46.176Z,7212.00
2023-06-04T08:51:46.180Z,6632.00
2023-06-04T08:52:46.162Z,6100.00
2023-06-04T08:53:46.156Z,5668.00
2023-06-04T08:54:46.152Z,5312.00
2023-06-04T08:55:46.138Z,5028.00
2023-06-04T08:56:46.134Z,4812.00
2023-06-04T08:57:46.125Z,4688.00
2023-06-04T08:58:46.093Z,4688.00
2023-06-04T08:59:46.088Z,4508.00
2023-06-04T09:00:46.093Z,4500.00
2023-06-04T09:01:46.240Z,4640.00
2023-06-04T09:02:46.139Z,4612.00
2023-06-04T09:03:46.096Z,4588.00
2023-06-04T09:04:46.030Z,4592.00
2023-06-04T09:05:46.020Z,4604.00
2023-06-04T09:06:46.028Z,4636.00
2023-06-04T09:07:46.004Z,4664.00
2023-06-04T09:08:53.734Z,4668.00
2023-06-04T09:09:46.515Z,4672.00
2023-06-04T09:10:45.944Z,4684.00
2023-06-04T09:11:45.970Z,4720.00
2023-06-04T09:12:45.950Z,4756.00
2023-06-04T09:13:45.933Z,4792.00
2023-06-04T09:14:45.927Z,4836.00
2023-06-04T09:15:45.981Z,4872.00
2023-06-04T09:16:45.898Z,4912.00
2023-06-04T09:17:45.964Z,4944.00
2023-06-04T09:18:45.861Z,4980.00
2023-06-04T09:19:45.878Z,5036.00
2023-06-04T09:20:45.873Z,5108.00
2023-06-04T09:21:45.845Z,5176.00
2023-06-04T09:22:45.816Z,5256.00
2023-06-04T09:23:45.892Z,5304.00
2023-06-04T09:24:45.804Z,5412.00
2023-06-04T09:25:47.353Z,5500.00
2023-06-04T09:26:45.967Z,5560.00
2023-06-04T09:27:45.759Z,5596.00
2023-06-04T09:28:45.772Z,5616.00
2023-06-04T09:29:45.752Z,5596.00
2023-06-04T09:30:45.757Z,5668.00
2023-06-04T09:31:45.802Z,5860.00
2023-06-04T09:32:45.797Z,6048.00
2023-06-04T09:33:45.700Z,6304.00
2023-06-04T09:34:45.714Z,6600.00
2023-06-04T09:35:45.684Z,6836.00
2023-06-04T09:36:45.681Z,6904.00
2023-06-04T09:37:45.689Z,7012.00
2023-06-04T09:38:45.642Z,7096.00
2023-06-04T09:39:45.634Z,7224.00
2023-06-04T09:40:45.640Z,7316.00
2023-06-04T09:41:45.613Z,7476.00
2023-06-04T09:42:45.623Z,7668.00
2023-06-04T09:43:45.587Z,7928.00
2023-06-04T09:44:45.579Z,8192.00
2023-06-04T09:45:45.571Z,8536.00
2023-06-04T09:46:45.602Z,8996.00
2023-06-04T09:47:45.573Z,9444.00
2023-06-04T09:48:45.534Z,9704.00
2023-06-04T09:49:45.531Z,10148.00
2023-06-04T09:50:45.535Z,10504.00
2023-06-04T09:51:45.504Z,10812.00
2023-06-04T09:52:45.487Z,10944.00
2023-06-04T09:53:45.528Z,10968.00
2023-06-04T09:54:45.480Z,10928.00
2023-06-04T09:55:45.486Z,10884.00
2023-06-04T09:56:45.431Z,10792.00
2023-06-04T09:57:45.424Z,10280.00
2023-06-04T09:58:45.412Z,9960.00
2023-06-04T09:59:45.403Z,9796.00
2023-06-04T10:00:45.387Z,9748.00
2023-06-04T10:01:45.501Z,9660.00
2023-06-04T10:02:45.472Z,9388.00
2023-06-04T10:03:45.477Z,9292.00
2023-06-04T10:04:45.345Z,9148.00
2023-06-04T10:05:45.329Z,9140.00
2023-06-04T10:06:45.316Z,9112.00
2023-06-04T10:07:45.322Z,9216.00
2023-06-04T10:08:45.311Z,9184.00
2023-06-04T10:09:45.311Z,9400.00
2023-06-04T10:10:45.303Z,9816.00
2023-06-04T10:11:45.306Z,10120.00
2023-06-04T10:12:45.257Z,10444.00
2023-06-04T10:13:45.234Z,10636.00
2023-06-04T10:14:45.268Z,10748.00
2023-06-04T10:15:45.242Z,10812.00
2023-06-04T10:16:45.249Z,10780.00
2023-06-04T10:17:45.191Z,10904.00
2023-06-04T10:18:45.289Z,10856.00
2023-06-04T10:19:45.179Z,11012.00
2023-06-04T10:20:45.170Z,10776.00
2023-06-04T10:21:45.168Z,10556.00
2023-06-04T10:22:45.159Z,10328.00
2023-06-04T10:23:45.178Z,10216.00
2023-06-04T10:24:45.129Z,10312.00
2023-06-04T10:25:45.104Z,10788.00
2023-06-04T10:26:45.132Z,10936.00
2023-06-04T10:27:45.098Z,11184.00
2023-06-04T10:28:45.081Z,10876.00
2023-06-04T10:29:45.082Z,10232.00
2023-06-04T10:30:45.072Z,10016.00
2023-06-04T10:31:45.094Z,9996.00
2023-06-04T10:32:45.078Z,9880.00
2023-06-04T10:33:45.043Z,10000.00
2023-06-04T10:34:45.001Z,10632.00
2023-06-04T10:35:44.985Z,10792.00
2023-06-04T10:36:44.990Z,10984.00
2023-06-04T10:37:44.975Z,11496.00
2023-06-04T10:38:44.950Z,11932.00
2023-06-04T10:39:44.954Z,12260.00
2023-06-04T10:40:44.935Z,12400.00
2023-06-04T10:41:44.917Z,12356.00
2023-06-04T10:42:44.928Z,12236.00
2023-06-04T10:43:44.917Z,12132.00
2023-06-04T10:44:44.989Z,12044.00
2023-06-04T10:45:44.900Z,11836.00
2023-06-04T10:46:45.007Z,11516.00
2023-06-04T10:47:44.887Z,11640.00
2023-06-04T10:48:44.855Z,11628.00
2023-06-04T10:49:44.851Z,11620.00
2023-06-04T10:50:44.833Z,11172.00
2023-06-04T10:51:45.035Z,10388.00
2023-06-04T10:52:44.829Z,9676.00
2023-06-04T10:53:44.789Z,9472.00
2023-06-04T10:54:44.782Z,9196.00
2023-06-04T10:55:44.771Z,9464.00
2023-06-04T10:56:44.758Z,9192.00
2023-06-04T10:57:44.737Z,9016.00
2023-06-04T10:58:44.732Z,8980.00
2023-06-04T10:59:44.714Z,9484.00
2023-06-04T11:00:44.713Z,9840.00
2023-06-04T11:01:44.758Z,9964.00
2023-06-04T11:02:44.764Z,9776.00
2023-06-04T11:03:44.730Z,9544.00
2023-06-04T11:04:44.687Z,9524.00
2023-06-04T11:05:44.625Z,9976.00
2023-06-04T11:06:44.619Z,10352.00
2023-06-04T11:07:44.614Z,10800.00
2023-06-04T11:08:44.625Z,10908.00
2023-06-04T11:09:44.586Z,10252.00
2023-06-04T11:10:44.649Z,10096.00
2023-06-04T11:11:44.563Z,10788.00
2023-06-04T11:12:44.597Z,11912.00
2023-06-04T11:13:44.542Z,12000.00
2023-06-04T11:14:44.541Z,12548.00
2023-06-04T11:15:44.553Z,12848.00
2023-06-04T11:16:44.516Z,12432.00
2023-06-04T11:17:44.553Z,12168.00
2023-06-04T11:18:44.512Z,12252.00
2023-06-04T11:19:44.482Z,12196.00
2023-06-04T11:20:44.462Z,12060.00
2023-06-04T11:21:44.473Z,11636.00
2023-06-04T11:22:44.424Z,11652.00
2023-06-04T11:23:44.467Z,11780.00
2023-06-04T11:24:44.430Z,12076.00
2023-06-04T11:25:44.414Z,12332.00
2023-06-04T11:26:53.535Z,11984.00
2023-06-04T11:27:44.363Z,12116.00
2023-06-04T11:28:44.388Z,11952.00
2023-06-04T11:29:44.352Z,11852.00
2023-06-04T11:30:44.343Z,11436.00
2023-06-04T11:31:44.427Z,11040.00
2023-06-04T11:32:44.347Z,10644.00
2023-06-04T11:33:44.287Z,10604.00
2023-06-04T11:34:44.322Z,10768.00
2023-06-04T11:35:44.275Z,11324.00
2023-06-04T11:36:44.264Z,11828.00
2023-06-04T11:37:44.260Z,12224.00
2023-06-04T11:38:44.260Z,12444.00
2023-06-04T11:39:44.250Z,12968.00
2023-06-04T11:40:44.225Z,13912.00
2023-06-04T11:41:44.203Z,14552.00
2023-06-04T11:42:44.219Z,15000.00
2023-06-04T11:43:44.202Z,15504.00
2023-06-04T11:44:44.170Z,16440.00
2023-06-04T11:45:44.167Z,17120.00
2023-06-04T11:46:44.170Z,17632.00
2023-06-04T11:47:44.221Z,18112.00
2023-06-04T11:48:44.170Z,18624.00
2023-06-04T11:49:44.142Z,18912.00
2023-06-04T11:50:44.122Z,19232.00
2023-06-04T11:51:44.098Z,18848.00
2023-06-04T11:52:44.080Z,18656.00
2023-06-04T11:53:44.083Z,18464.00
2023-06-04T11:54:44.068Z,18432.00
2023-06-04T11:55:44.077Z,18336.00
2023-06-04T11:56:44.055Z,18112.00
2023-06-04T11:57:44.011Z,17504.00
2023-06-04T11:58:44.012Z,16512.00
2023-06-04T11:59:44.002Z,15904.00
2023-06-04T12:00:43.984Z,15336.00
2023-06-04T12:01:44.024Z,14940.00
2023-06-04T12:02:44.033Z,14608.00
2023-06-04T12:03:44.015Z,14540.00
2023-06-04T12:04:43.993Z,14424.00
2023-06-04T12:05:43.991Z,14256.00
2023-06-04T12:06:48.956Z,13792.00
2023-06-04T12:07:43.909Z,13320.00
2023-06-04T12:08:43.904Z,13400.00
2023-06-04T12:09:43.876Z,13952.00
2023-06-04T12:10:43.914Z,14664.00
2023-06-04T12:11:43.854Z,16100.00
2023-06-04T12:12:43.861Z,16540.00
2023-06-04T12:13:43.841Z,16416.00
2023-06-04T12:14:43.867Z,16864.00
2023-06-04T12:15:43.821Z,17568.00
2023-06-04T12:16:43.857Z,18016.00
2023-06-04T12:17:43.826Z,18496.00
2023-06-04T12:18:43.790Z,18144.00
2023-06-04T12:19:43.801Z,17760.00
2023-06-04T12:20:44.009Z,17472.00
2023-06-04T12:21:43.765Z,17440.00